Time;durP1;ratioP1;P1;durP2;ratioP2;P2;SDS_P1;SDS_P2;PMS_P1;PMS_P2;Temp;Humidity;BMP_temperature;BMP_pressure;BME280_temperature;BME280_humidity;BME280_pressure;Samples;Min_cycle;Max_cycle;Signal;HPM_P1;HPM_P2
2021/11/02 00:01:30;;;;;;;0.00;0.00;;;;;;;8.28;87.09;98609.44;5031814;28;20037;-69
2021/11/02 00:03:55;;;;;;;0.00;0.00;;;;;;;8.22;86.60;98609.72;5031673;28;20037;-70
2021/11/02 00:06:21;;;;;;;0.00;0.00;;;;;;;8.21;86.96;98603.59;5031221;28;20080;-69
2021/11/02 00:08:47;;;;;;;0.00;0.00;;;;;;;8.25;86.65;98606.50;5030211;28;20116;-68
2021/11/02 00:11:13;;;;;;;0.00;0.00;;;;;;;8.25;86.45;98604.66;5031071;28;20113;-71
2021/11/02 00:13:41;;;;;;;0.00;0.00;;;;;;;8.23;86.05;98600.69;5031319;28;20501;-73
2021/11/02 00:16:12;;;;;;;;;;;;;;;8.20;86.35;98599.31;5030073;28;20029;-72
2021/11/02 00:18:42;;;;;;;0.00;0.00;;;;;;;8.17;86.47;98591.91;5028936;28;19921;-76
2021/11/02 00:21:08;;;;;;;0.00;0.00;;;;;;;8.14;86.80;98587.91;5029554;28;20021;-72
2021/11/02 00:23:38;;;;;;;0.00;0.00;;;;;;;8.08;85.73;98574.88;5029682;28;20033;-72
2021/11/02 00:26:09;;;;;;;0.00;0.00;;;;;;;8.09;86.47;98587.13;5029615;28;20030;-70
2021/11/02 00:28:36;;;;;;;0.00;0.00;;;;;;;8.03;86.42;98573.00;5030330;28;20425;-71
2021/11/02 00:31:02;;;;;;;0.00;0.00;;;;;;;8.04;86.03;98579.16;5028847;28;20505;-71
2021/11/02 00:33:27;;;;;;;2.35;1.55;;;;;;;8.02;86.67;98582.09;5030636;28;20073;-70
2021/11/02 00:35:53;;;;;;;0.00;0.00;;;;;;;8.04;86.54;98574.59;5030930;28;20038;-70
2021/11/02 00:38:19;;;;;;;0.30;0.30;;;;;;;8.04;86.67;98573.81;5030412;28;20025;-71
2021/11/02 00:40:46;;;;;;;0.00;0.00;;;;;;;7.96;86.34;98560.00;5030826;28;20406;-70
2021/11/02 00:43:11;;;;;;;0.00;0.00;;;;;;;8.02;86.25;98568.78;5030404;28;20057;-70
2021/11/02 00:45:38;;;;;;;0.00;0.00;;;;;;;8.04;86.30;98571.16;5030695;28;20025;-72
2021/11/02 00:48:08;;;;;;;0.00;0.00;;;;;;;7.97;86.07;98547.47;5030417;28;20044;-71
2021/11/02 00:50:35;;;;;;;0.00;0.00;;;;;;;8.06;85.55;98561.81;5030122;28;20501;-70
2021/11/02 00:53:05;;;;;;;0.00;0.00;;;;;;;8.06;86.03;98551.16;5031222;28;20041;-70
2021/11/02 00:55:31;;;;;;;0.00;0.00;;;;;;;7.96;85.45;98536.03;5030513;28;20037;-70
2021/11/02 00:57:58;;;;;;;0.00;0.00;;;;;;;8.05;85.92;98551.44;5030546;28;20080;-69
2021/11/02 01:00:24;;;;;;;0.00;0.00;;;;;;;7.93;85.66;98528.56;5028896;28;20414;-71
2021/11/02 01:02:50;;;;;;;0.32;0.20;;;;;;;7.95;85.38;98531.75;5030843;28;20025;-69
2021/11/02 01:05:17;;;;;;;2.47;0.90;;;;;;;7.99;85.51;98538.13;5029970;28;20029;-70
2021/11/02 01:07:43;;;;;;;0.00;0.00;;;;;;;7.95;85.10;98528.31;5030318;28;20088;-70
2021/11/02 01:10:16;;;;;;;0.00;0.00;;;;;;;7.93;84.92;98530.44;5030433;28;20482;-70
2021/11/02 01:12:46;;;;;;;0.00;0.00;;;;;;;7.83;85.18;98512.63;5017572;28;20037;-70
2021/11/02 01:15:20;;;;;;;0.00;0.00;;;;;;;7.85;84.55;98511.28;5029959;28;20079;-72
2021/11/02 01:17:46;;;;;;;0.00;0.00;;;;;;;7.86;84.90;98517.44;5028559;28;20500;-71
2021/11/02 01:20:14;;;;;;;0.00;0.00;;;;;;;7.76;83.75;98504.91;5030319;28;20029;-70
2021/11/02 01:22:42;;;;;;;0.00;0.00;;;;;;;7.77;84.35;98511.84;5028962;28;20461;-70
2021/11/02 01:25:09;;;;;;;0.00;0.00;;;;;;;7.67;83.19;98494.03;5030439;28;20481;-73
2021/11/02 01:27:35;;;;;;;0.00;0.00;;;;;;;7.60;83.04;98496.19;5028925;28;20032;-71
2021/11/02 01:30:01;;;;;;;0.00;0.00;;;;;;;7.61;83.50;98510.28;5030412;28;20087;-73
2021/11/02 01:32:26;;;;;;;0.00;0.00;;;;;;;7.56;82.95;98511.09;5035549;28;20021;-72
2021/11/02 01:34:52;;;;;;;0.00;0.00;;;;;;;7.55;82.75;98514.81;5048883;28;20424;-73
2021/11/02 01:37:17;;;;;;;0.00;0.00;;;;;;;7.50;82.77;98515.63;5032039;28;20036;-72
2021/11/02 01:39:43;;;;;;;0.00;0.00;;;;;;;7.50;82.68;98506.84;5030509;28;20040;-71
2021/11/02 01:42:09;;;;;;;0.00;0.00;;;;;;;7.44;82.69;98491.97;5048730;28;20080;-71
2021/11/02 01:44:35;;;;;;;0.00;0.00;;;;;;;7.35;82.92;98487.19;5034804;28;20030;-72
2021/11/02 01:47:01;;;;;;;0.00;0.00;;;;;;;7.39;82.79;98495.44;5034491;28;20036;-73
2021/11/02 01:49:27;;;;;;;0.00;0.00;;;;;;;7.41;82.94;98506.59;5033964;28;20084;-72
2021/11/02 01:51:53;;;;;;;0.00;0.00;;;;;;;7.37;82.74;98506.34;5048811;28;20037;-72
2021/11/02 01:54:19;;;;;;;0.00;0.00;;;;;;;7.36;83.14;98495.94;5032077;28;20023;-72
2021/11/02 01:56:49;;;;;;;0.00;0.00;;;;;;;7.39;82.68;98505.28;5049289;28;20036;-70
2021/11/02 01:59:15;;;;;;;0.00;0.00;;;;;;;7.36;82.69;98493.28;5034210;28;20065;-70
2021/11/02 02:01:56;;;;;;;0.00;0.00;;;;;;;7.31;83.06;98498.63;5034206;28;20029;-69
2021/11/02 02:04:48;;;;;;;0.00;0.00;;;;;;;7.28;82.45;98489.31;5033187;28;20029;-69
2021/11/02 02:07:46;;;;;;;0.00;0.00;;;;;;;7.26;82.49;98490.66;5033156;28;20029;-69
2021/11/02 02:10:32;;;;;;;0.00;0.00;;;;;;;7.22;82.57;98487.72;5033708;28;20103;-70
2021/11/02 02:13:02;;;;;;;0.25;0.25;;;;;;;7.26;82.67;98501.28;5033222;28;20037;-68
2021/11/02 02:15:58;;;;;;;0.00;0.00;;;;;;;7.13;82.35;98484.81;5033483;28;20032;-68
2021/11/02 02:18:36;;;;;;;0.00;0.00;;;;;;;7.08;82.65;98487.47;5033316;28;20037;-68
2021/11/02 02:21:12;;;;;;;0.00;0.00;;;;;;;7.17;82.59;98503.69;5028133;28;20040;-68
2021/11/02 02:24:12;;;;;;;0.00;0.00;;;;;;;7.16;82.31;98502.09;5033669;28;20555;-69
2021/11/02 02:26:54;;;;;;;0.00;0.00;;;;;;;7.11;82.63;98499.44;5032876;28;20067;-72
2021/11/02 02:29:22;;;;;;;0.00;0.00;;;;;;;7.05;82.75;98491.47;5018189;28;20025;-70
2021/11/02 02:31:49;;;;;;;0.00;0.00;;;;;;;7.10;83.01;98505.81;5032949;28;20025;-69
2021/11/02 02:34:16;;;;;;;1.17;1.17;;;;;;;6.99;82.69;98515.66;5029023;28;20044;-70
2021/11/02 02:36:44;;;;;;;0.00;0.00;;;;;;;7.04;82.96;98523.63;5032597;28;20033;-71
2021/11/02 02:39:12;;;;;;;0.00;0.00;;;;;;;6.97;82.29;98509.78;5033229;28;20470;-70
2021/11/02 02:41:40;;;;;;;0.00;0.00;;;;;;;6.95;82.59;98510.06;5033227;28;20395;-71
2021/11/02 02:44:10;;;;;;;0.00;0.00;;;;;;;6.98;82.26;98512.22;5033082;28;20030;-69
2021/11/02 02:46:37;;;;;;;0.00;0.00;;;;;;;6.88;82.72;98502.38;5032945;28;20034;-70
2021/11/02 02:49:04;;;;;;;0.00;0.00;;;;;;;6.91;82.26;98501.03;5031004;28;20033;-70
2021/11/02 02:51:30;;;;;;;0.00;0.00;;;;;;;6.89;81.76;98506.59;5031973;28;20099;-71
2021/11/02 02:53:57;;;;;;;0.00;0.00;;;;;;;6.87;82.22;98521.22;5032604;28;20033;-71
2021/11/02 02:56:24;;;;;;;0.00;0.00;;;;;;;6.78;82.18;98515.63;5032893;28;20033;-70
2021/11/02 02:58:53;;;;;;;0.00;0.00;;;;;;;6.71;82.14;98505.28;5033086;28;20036;-70
2021/11/02 03:01:20;;;;;;;0.00;0.00;;;;;;;6.73;82.43;98532.34;5032435;28;20032;-69
2021/11/02 03:03:50;;;;;;;0.20;0.20;;;;;;;6.65;82.34;98519.59;5032655;28;20063;-70
2021/11/02 03:06:17;;;;;;;0.00;0.00;;;;;;;6.65;82.35;98527.59;5030068;28;20033;-70
2021/11/02 03:08:47;;;;;;;0.20;0.20;;;;;;;6.66;81.91;98523.84;5032401;28;20117;-69
2021/11/02 03:11:14;;;;;;;0.00;0.00;;;;;;;6.52;81.33;98507.63;5032380;28;21903;-71
2021/11/02 03:13:45;;;;;;;0.00;0.00;;;;;;;6.55;81.30;98522.22;5033040;28;20030;-69
2021/11/02 03:16:15;;;;;;;0.00;0.00;;;;;;;6.45;81.78;98499.09;5032089;28;20029;-70
2021/11/02 05:07:15;;;;;;;0.00;0.00;;;;;;;5.72;87.08;98452.09;5029904;28;20043;-73
2021/11/02 06:04:35;;;;;;;0.30;0.30;;;;;;;5.69;87.38;98403.00;5030043;28;20458;-70
2021/11/02 06:08:06;;;;;;;0.00;0.00;;;;;;;5.87;87.11;98438.88;5029569;28;20030;-71
2021/11/02 06:29:33;;;;;;;0.00;0.00;;;;;;;6.62;87.20;98413.06;5033333;28;20216;-71
2021/11/02 06:32:15;;;;;;;0.17;0.17;;;;;;;6.73;86.97;98409.34;5033555;28;20028;-71
2021/11/02 06:42:52;;;;;;;0.00;0.00;;;;;;;7.25;85.42;98403.94;5032662;28;20060;-71
2021/11/02 07:15:51;;;;;;;0.95;0.95;;;;;;;8.14;84.74;98364.19;5032740;28;20472;-70
2021/11/02 07:18:22;;;;;;;0.10;0.10;;;;;;;8.29;83.69;98375.81;5031597;28;20029;-71
2021/11/02 07:21:03;;;;;;;0.00;0.00;;;;;;;8.38;83.90;98363.47;5032749;28;20076;-70
2021/11/02 07:26:17;;;;;;;0.10;0.10;;;;;;;8.44;84.41;98365.03;5032539;28;20114;-71
2021/11/02 08:48:12;;;;;;;0.10;0.10;;;;;;;11.09;87.23;98291.84;5031113;28;20395;-72
2021/11/02 08:50:42;;;;;;;1.08;1.08;;;;;;;11.16;86.92;98272.72;5030672;28;20029;-72
2021/11/02 08:53:12;;;;;;;0.00;0.00;;;;;;;11.36;87.08;98291.03;5031104;28;20030;-72
2021/11/02 08:55:40;;;;;;;0.08;0.08;;;;;;;11.39;87.21;98278.94;5031207;28;20025;-72
2021/11/02 08:58:05;;;;;;;0.00;0.00;;;;;;;11.52;86.99;98278.13;5030933;28;20391;-72
2021/11/02 09:00:32;;;;;;;0.00;0.00;;;;;;;11.49;87.56;98253.84;5030910;28;20040;-71
2021/11/02 09:03:32;;;;;;;0.98;0.95;;;;;;;11.73;86.95;98293.75;5031179;28;20072;-71
2021/11/02 09:06:03;;;;;;;0.10;0.10;;;;;;;11.69;87.72;98287.38;5031155;28;20052;-70
2021/11/02 09:08:36;;;;;;;0.45;0.45;;;;;;;11.63;87.52;98297.44;5030818;28;20112;-71
2021/11/02 09:11:02;;;;;;;3.47;1.25;;;;;;;11.56;86.49;98277.50;5029490;28;20491;-72
2021/11/02 09:13:28;;;;;;;0.10;0.10;;;;;;;11.53;86.70;98281.56;5030782;28;20029;-72
2021/11/02 09:16:00;;;;;;;0.00;0.00;;;;;;;11.47;86.20;98272.06;5031009;28;20025;-71
2021/11/02 09:18:27;;;;;;;0.10;0.10;;;;;;;11.40;86.88;98274.38;5030857;28;20025;-70
2021/11/02 09:20:54;;;;;;;0.40;0.40;;;;;;;11.34;86.80;98273.69;5031124;28;20061;-70
2021/11/02 09:23:20;;;;;;;0.10;0.10;;;;;;;11.29;87.03;98282.63;5030875;28;20033;-71
2021/11/02 09:25:47;;;;;;;0.60;0.60;;;;;;;11.25;86.14;98284.28;5029238;28;20398;-71
2021/11/02 09:28:13;;;;;;;0.98;0.50;;;;;;;11.05;86.62;98272.13;5030812;28;20033;-71
2021/11/02 09:30:40;;;;;;;1.48;0.55;;;;;;;10.98;86.89;98275.19;5030537;28;20026;-71
2021/11/02 09:33:05;;;;;;;0.10;0.10;;;;;;;10.91;86.84;98282.03;5031047;28;20115;-71
2021/11/02 09:35:32;;;;;;;0.13;0.13;;;;;;;10.82;87.28;98277.34;5030433;28;20514;-72
2021/11/02 09:37:58;;;;;;;0.63;0.63;;;;;;;10.78;87.47;98281.72;5030533;28;20037;-71
2021/11/02 09:40:29;;;;;;;0.08;0.08;;;;;;;10.70;87.41;98277.84;5029331;28;20414;-71
2021/11/02 09:43:15;;;;;;;0.32;0.32;;;;;;;10.61;88.38;98273.47;5030579;28;20546;-71
2021/11/02 09:45:54;;;;;;;0.30;0.30;;;;;;;10.49;89.34;98265.94;5029085;28;20025;-71
2021/11/02 09:48:44;;;;;;;0.00;0.00;;;;;;;10.44;88.92;98264.16;5030442;28;20129;-72
2021/11/02 09:51:09;;;;;;;0.30;0.30;;;;;;;10.29;89.98;98248.31;5030212;28;20472;-72
2021/11/02 09:53:46;;;;;;;0.00;0.00;;;;;;;10.27;89.78;98264.66;5030162;28;20029;-73
2021/11/02 09:56:31;;;;;;;0.35;0.35;;;;;;;10.17;90.42;98262.19;5029255;28;20025;-72
2021/11/02 09:59:49;;;;;;;0.10;0.10;;;;;;;9.99;91.65;98237.84;5030869;28;20410;-72
2021/11/02 10:02:34;;;;;;;0.32;0.32;;;;;;;10.04;92.20;98253.78;5022782;28;20037;-72
2021/11/02 10:05:17;;;;;;;0.00;0.00;;;;;;;10.03;92.47;98252.25;5033099;28;20478;-72
2021/11/02 10:07:56;;;;;;;0.00;0.00;;;;;;;9.99;93.00;98247.75;5034245;28;20028;-72
2021/11/02 10:10:25;;;;;;;0.25;0.25;;;;;;;9.95;92.72;98239.53;5032926;28;20040;-72
2021/11/02 10:13:15;;;;;;;0.22;0.22;;;;;;;10.01;93.61;98256.25;5034370;28;20044;-72
2021/11/02 10:16:09;;;;;;;0.00;0.00;;;;;;;9.80;93.36;98221.84;5032734;28;20100;-72
2021/11/02 10:19:11;;;;;;;0.13;0.13;;;;;;;10.02;93.40;98255.19;5033863;28;20029;-71
2021/11/02 10:21:54;;;;;;;0.00;0.00;;;;;;;10.00;94.29;98252.81;5033824;28;20112;-72
2021/11/02 10:24:29;;;;;;;0.65;0.65;;;;;;;9.97;94.89;98245.34;5034065;28;20057;-72
2021/11/02 10:27:23;;;;;;;0.00;0.00;;;;;;;9.97;95.40;98241.91;5032509;28;20041;-70
2021/11/02 10:30:18;;;;;;;0.10;0.10;;;;;;;9.97;95.44;98250.69;5033644;28;20482;-72
2021/11/02 10:32:45;;;;;;;0.28;0.28;;;;;;;9.87;95.17;98229.50;5032424;28;20029;-72
2021/11/02 10:35:26;;;;;;;0.10;0.10;;;;;;;9.96;95.96;98241.13;5034111;28;20029;-72
2021/11/02 10:38:02;;;;;;;0.00;0.00;;;;;;;9.98;95.87;98244.28;5033652;28;20022;-72
2021/11/02 10:40:34;;;;;;;0.10;0.10;;;;;;;9.99;95.71;98234.41;5033664;28;20116;-72
2021/11/02 10:43:23;;;;;;;0.10;0.10;;;;;;;10.02;96.22;98242.63;5032174;28;20049;-72
2021/11/02 10:45:55;;;;;;;0.00;0.00;;;;;;;9.96;96.26;98227.78;5033373;28;20025;-72
2021/11/02 10:48:30;;;;;;;0.00;0.00;;;;;;;10.00;96.43;98239.44;5033440;28;20091;-72
2021/11/02 10:51:05;;;;;;;0.20;0.20;;;;;;;9.92;96.87;98216.88;5031969;28;20363;-72
2021/11/02 10:53:38;;;;;;;0.08;0.08;;;;;;;9.92;96.71;98226.75;5033582;28;20072;-72
2021/11/02 10:56:41;;;;;;;0.00;0.00;;;;;;;9.99;96.90;98239.75;5032123;28;20029;-72
2021/11/02 10:59:14;;;;;;;0.30;0.30;;;;;;;9.91;96.53;98230.50;5032118;28;20033;-72
2021/11/02 11:01:42;;;;;;;0.40;0.40;;;;;;;9.96;97.34;98241.13;5033134;28;20021;-72
2021/11/02 11:04:12;;;;;;;0.00;0.00;;;;;;;10.00;96.98;98250.13;5033672;28;20037;-72
2021/11/02 11:06:42;;;;;;;0.10;0.10;;;;;;;9.95;97.13;98244.88;5033272;28;20080;-72
2021/11/02 11:09:11;;;;;;;0.35;0.35;;;;;;;9.93;96.90;98255.06;5033202;28;20026;-72
2021/11/02 11:11:46;;;;;;;0.55;0.55;;;;;;;9.93;97.67;98261.19;5031227;28;20120;-71
2021/11/02 11:14:14;;;;;;;0.00;0.00;;;;;;;9.96;97.78;98272.38;5031786;28;20029;-72
2021/11/02 11:16:46;;;;;;;0.00;0.00;;;;;;;10.00;97.14;98281.41;5032859;28;20034;-72
2021/11/02 11:20:06;;;;;;;0.10;0.10;;;;;;;10.13;97.32;98282.53;5032905;28;20040;-72
2021/11/02 11:22:42;;;;;;;0.00;0.00;;;;;;;10.16;97.47;98284.63;5010381;28;20053;-72
2021/11/02 11:25:41;;;;;;;0.10;0.10;;;;;;;10.05;96.83;98263.41;4994186;28;20096;-72
2021/11/02 11:28:13;;;;;;;0.00;0.00;;;;;;;10.21;96.53;98287.22;4989901;28;20037;-72
2021/11/02 11:30:40;;;;;;;0.00;0.00;;;;;;;10.22;95.96;98289.59;5032443;28;20025;-72
2021/11/02 11:33:11;;;;;;;0.00;0.00;;;;;;;10.14;96.54;98279.56;5031172;28;20032;-72
2021/11/02 11:35:38;;;;;;;0.00;0.00;;;;;;;10.21;96.32;98287.22;5032259;28;20372;-70
2021/11/02 11:38:06;;;;;;;0.00;0.00;;;;;;;10.15;96.62;98286.50;5032506;28;20025;-72
2021/11/02 11:40:40;;;;;;;0.38;0.38;;;;;;;10.19;96.16;98278.69;5032720;28;20033;-72
2021/11/02 11:43:07;;;;;;;0.10;0.10;;;;;;;10.20;96.20;98274.94;5032332;28;20073;-72
2021/11/02 11:45:36;;;;;;;0.20;0.20;;;;;;;10.21;96.19;98269.28;5032437;28;20514;-72
2021/11/02 11:48:09;;;;;;;0.20;0.20;;;;;;;10.24;96.06;98262.56;5032416;28;20026;-72
2021/11/02 11:50:37;;;;;;;0.00;0.00;;;;;;;10.29;96.12;98251.81;5032264;28;20033;-72
2021/11/02 11:53:03;;;;;;;0.00;0.00;;;;;;;10.28;96.41;98265.44;5032633;28;20383;-72
2021/11/02 11:55:34;;;;;;;0.00;0.00;;;;;;;10.27;95.86;98242.50;5032005;28;20529;-72
2021/11/02 11:58:03;;;;;;;0.00;0.00;;;;;;;10.23;96.45;98239.63;5030526;28;20037;-72
2021/11/02 12:00:28;;;;;;;0.00;0.00;;;;;;;10.10;96.43;98212.56;5032137;28;20026;-71
2021/11/02 12:03:01;;;;;;;0.00;0.00;;;;;;;10.15;95.85;98211.69;5031719;28;20116;-71
2021/11/02 12:05:29;;;;;;;0.10;0.10;;;;;;;10.19;96.63;98214.56;5031975;28;20099;-71
2021/11/02 12:08:03;;;;;;;0.00;0.00;;;;;;;10.22;96.88;98214.75;5031603;28;20029;-71
2021/11/02 12:10:30;;;;;;;0.10;0.10;;;;;;;10.18;97.06;98186.25;5030387;28;20087;-71
2021/11/02 12:12:57;;;;;;;0.00;0.00;;;;;;;10.22;96.84;98184.59;5031603;28;20037;-71
2021/11/02 12:15:23;;;;;;;0.08;0.08;;;;;;;10.22;96.09;98189.94;5030582;28;20028;-71
2021/11/02 12:17:59;;;;;;;0.10;0.10;;;;;;;10.17;95.97;98174.00;5030125;28;20529;-71
2021/11/02 12:20:28;;;;;;;0.38;0.38;;;;;;;10.19;96.32;98174.47;5031425;28;20041;-71
2021/11/02 12:23:02;;;;;;;0.00;0.00;;;;;;;10.16;96.91;98167.06;5031293;28;20026;-71
2021/11/02 12:25:33;;;;;;;0.00;0.00;;;;;;;10.25;96.37;98175.97;5031190;28;20108;-71
2021/11/02 12:27:59;;;;;;;0.00;0.00;;;;;;;10.26;96.50;98188.25;5031444;28;20034;-71
2021/11/02 12:30:27;;;;;;;0.20;0.20;;;;;;;10.28;96.40;98187.94;5031308;28;20496;-71
2021/11/02 12:32:59;;;;;;;0.00;0.00;;;;;;;10.22;95.56;98185.38;5031343;28;20034;-70
2021/11/02 12:35:42;;;;;;;0.00;0.00;;;;;;;10.31;96.89;98203.41;5031792;28;20028;-70
2021/11/02 12:38:09;;;;;;;0.00;0.00;;;;;;;10.31;97.06;98208.75;5031372;28;20116;-71
2021/11/02 12:40:37;;;;;;;0.00;0.00;;;;;;;10.34;96.38;98211.63;5031425;28;20139;-71
2021/11/02 12:43:03;;;;;;;;;;;;;;;10.47;96.69;98218.09;5031285;28;20056;-71
2021/11/02 12:45:39;;;;;;;0.00;0.00;;;;;;;10.51;96.74;98223.66;5031304;28;19913;-71
2021/11/02 12:48:09;;;;;;;0.00;0.00;;;;;;;10.54;96.79;98231.88;5031357;28;20053;-71
2021/11/02 12:50:36;;;;;;;0.00;0.00;;;;;;;10.57;96.64;98230.50;5031206;28;20057;-71
2021/11/02 12:53:03;;;;;;;0.38;0.38;;;;;;;10.48;96.62;98189.50;5031056;28;20057;-71
2021/11/02 12:55:31;;;;;;;0.00;0.00;;;;;;;10.59;96.26;98203.47;5031195;28;20052;-73
2021/11/02 12:58:11;;;;;;;0.00;0.00;;;;;;;10.64;96.47;98203.38;5029600;28;20468;-72
2021/11/02 13:01:00;;;;;;;0.00;0.00;;;;;;;10.64;96.34;98196.13;5031066;28;20505;-73
2021/11/02 13:03:29;;;;;;;0.00;0.00;;;;;;;10.67;96.09;98184.84;5031134;28;20029;-72
2021/11/02 13:06:06;;;;;;;0.00;0.00;;;;;;;10.66;94.38;98169.13;5030748;28;20493;-73
2021/11/02 13:08:34;;;;;;;0.00;0.00;;;;;;;10.78;95.38;98176.63;5031082;28;20025;-72
2021/11/02 13:11:08;;;;;;;;;;;;;;;10.80;94.71;98177.13;5030765;28;20568;-72
2021/11/02 13:13:56;;;;;;;0.00;0.00;;;;;;;10.76;94.60;98171.56;5030603;28;19913;-72
2021/11/02 13:16:23;;;;;;;0.00;0.00;;;;;;;10.82;94.84;98180.28;5030893;28;20022;-73
2021/11/02 13:18:49;;;;;;;0.00;0.00;;;;;;;10.81;95.15;98173.34;5030607;28;20124;-71
2021/11/02 13:21:29;;;;;;;0.00;0.00;;;;;;;10.87;95.75;98194.34;5030872;28;20132;-73
2021/11/02 13:24:07;;;;;;;0.00;0.00;;;;;;;10.91;95.52;98180.38;5029249;28;20121;-73
2021/11/02 13:26:33;;;;;;;0.10;0.10;;;;;;;10.80;94.73;98159.19;5030739;28;20041;-73
2021/11/02 13:29:20;;;;;;;0.45;0.45;;;;;;;10.94;94.63;98177.91;5030554;28;20103;-73
2021/11/02 13:31:46;;;;;;;0.03;0.03;;;;;;;10.95;94.27;98176.81;5029103;28;20449;-73
2021/11/02 13:34:13;;;;;;;0.00;0.00;;;;;;;10.96;94.39;98178.41;5030810;28;20116;-72
2021/11/02 13:36:39;;;;;;;0.10;0.10;;;;;;;10.97;95.25;98184.53;5034227;28;20041;-72
2021/11/02 13:39:06;;;;;;;0.03;0.03;;;;;;;10.94;95.09;98169.88;5034531;28;20037;-72
2021/11/02 13:41:38;;;;;;;0.00;0.00;;;;;;;11.03;95.46;98186.81;5034703;28;20084;-72
2021/11/02 13:44:09;;;;;;;0.00;0.00;;;;;;;10.93;94.19;98164.81;5034593;28;20037;-72
2021/11/02 13:46:56;;;;;;;0.00;0.00;;;;;;;10.95;93.73;98165.31;5034286;28;20418;-72
2021/11/02 13:49:22;;;;;;;0.00;0.00;;;;;;;10.98;95.41;98159.38;5033370;28;20104;-72
2021/11/02 13:51:52;;;;;;;2.58;1.50;;;;;;;11.08;94.72;98163.72;5034192;28;20030;-72
2021/11/02 13:54:18;;;;;;;0.20;0.20;;;;;;;11.11;94.21;98176.47;5034497;28;20056;-72
2021/11/02 13:56:46;;;;;;;0.00;0.00;;;;;;;11.08;94.25;98161.81;5032932;28;20113;-72
2021/11/02 13:59:13;;;;;;;0.00;0.00;;;;;;;11.10;93.90;98159.63;5033099;28;20029;-72
2021/11/02 14:01:50;;;;;;;0.10;0.10;;;;;;;11.15;93.62;98156.06;5034181;28;20487;-72
2021/11/02 14:04:32;;;;;;;0.08;0.08;;;;;;;11.18;93.49;98161.59;5034242;28;20097;-72
2021/11/02 14:07:16;;;;;;;0.55;0.38;;;;;;;11.26;93.56;98164.66;5033852;28;20577;-72
2021/11/02 14:09:52;;;;;;;0.00;0.00;;;;;;;11.30;93.59;98182.50;5032916;28;20048;-72
2021/11/02 14:12:27;;;;;;;0.00;0.00;;;;;;;11.34;93.83;98178.13;5032771;28;20551;-72
2021/11/02 14:15:14;;;;;;;0.00;0.00;;;;;;;11.36;93.51;98167.91;5033647;28;20028;-72
2021/11/02 14:17:41;;;;;;;0.03;0.03;;;;;;;11.40;93.40;98167.28;5034121;28;20022;-72
2021/11/02 14:20:11;;;;;;;0.00;0.00;;;;;;;11.35;93.43;98163.63;5032483;28;20038;-73
2021/11/02 14:22:49;;;;;;;0.00;0.00;;;;;;;11.35;93.46;98163.63;5033980;28;20052;-73
2021/11/02 14:25:30;;;;;;;0.10;0.10;;;;;;;11.45;93.10;98175.19;5033978;28;20037;-73
2021/11/02 14:27:55;;;;;;;0.00;0.00;;;;;;;11.47;93.46;98165.75;5032223;28;20402;-70
2021/11/02 14:30:37;;;;;;;0.00;0.00;;;;;;;11.48;92.75;98171.91;5033543;28;20104;-73
2021/11/02 14:33:10;;;;;;;0.00;0.00;;;;;;;11.30;93.09;98142.34;5033647;28;20035;-72
2021/11/02 14:36:01;;;;;;;0.10;0.10;;;;;;;11.52;93.40;98171.00;5033783;28;20041;-71
2021/11/02 14:38:28;;;;;;;0.20;0.20;;;;;;;11.44;93.71;98160.25;5032353;28;20043;-71
2021/11/02 14:40:57;;;;;;;0.00;0.00;;;;;;;11.49;93.60;98163.56;5033480;28;20044;-72
2021/11/02 14:43:23;;;;;;;;;;;;;;;11.54;93.35;98168.81;5034238;28;20127;-72
2021/11/02 14:45:53;;;;;;;0.00;0.00;;;;;;;11.56;93.62;98162.34;5033430;28;19920;-72
2021/11/02 14:48:48;;;;;;;0.00;0.00;;;;;;;11.54;93.13;98160.78;5032865;28;20493;-72
2021/11/02 14:51:16;;;;;;;0.00;0.00;;;;;;;11.57;93.65;98170.13;5033481;28;20025;-72
2021/11/02 14:53:43;;;;;;;0.20;0.20;;;;;;;11.49;93.05;98155.53;5033249;28;20103;-72
2021/11/02 14:56:15;;;;;;;0.00;0.00;;;;;;;11.52;93.91;98175.56;5033281;28;20490;-73
2021/11/02 14:58:40;;;;;;;0.00;0.00;;;;;;;11.57;93.56;98178.16;5033279;28;20100;-71
2021/11/02 15:01:06;;;;;;;0.20;0.20;;;;;;;11.54;93.40;98168.81;5033043;28;20095;-71
2021/11/02 15:03:33;;;;;;;0.00;0.00;;;;;;;11.46;93.83;98158.03;5032847;28;20104;-71
2021/11/02 15:06:08;;;;;;;0.00;0.00;;;;;;;11.53;94.26;98172.59;5032788;28;20047;-71
2021/11/02 15:08:36;;;;;;;0.10;0.10;;;;;;;11.47;94.05;98163.06;5033250;28;20029;-73
2021/11/02 15:11:09;;;;;;;0.00;0.00;;;;;;;11.46;94.15;98156.16;5032976;28;20029;-71
2021/11/02 15:13:36;;;;;;;0.00;0.00;;;;;;;11.49;94.69;98160.13;5032888;28;20040;-71
2021/11/02 15:16:02;;;;;;;0.00;0.00;;;;;;;11.47;94.31;98164.97;5032774;28;20056;-71
2021/11/02 15:18:49;;;;;;;0.00;0.00;;;;;;;11.40;94.93;98161.94;5033064;28;20091;-71
2021/11/02 15:21:27;;;;;;;0.00;0.00;;;;;;;11.41;94.91;98168.88;5033048;28;20032;-71
2021/11/02 15:23:52;;;;;;;0.00;0.00;;;;;;;11.35;94.87;98168.19;5031429;28;20025;-71
2021/11/02 15:26:18;;;;;;;0.00;0.00;;;;;;;11.20;94.57;98147.91;5032835;28;20457;-71
2021/11/02 15:28:49;;;;;;;0.20;0.20;;;;;;;11.21;95.50;98163.66;5032846;28;20021;-71
2021/11/02 15:31:18;;;;;;;0.00;0.00;;;;;;;11.20;95.75;98169.31;5032843;28;20136;-71
2021/11/02 15:33:45;;;;;;;0.00;0.00;;;;;;;11.18;95.98;98179.53;5032721;28;20116;-71
2021/11/02 15:36:19;;;;;;;0.20;0.20;;;;;;;11.11;96.23;98174.59;5032181;28;20033;-71
2021/11/02 15:39:03;;;;;;;0.00;0.00;;;;;;;11.07;96.39;98170.94;5032522;28;20030;-71
2021/11/02 15:41:30;;;;;;;0.00;0.00;;;;;;;11.16;96.45;98187.09;5031077;28;20628;-71
2021/11/02 15:44:07;;;;;;;0.00;0.00;;;;;;;11.11;96.45;98179.94;5032379;28;20040;-71
2021/11/02 15:46:42;;;;;;;0.00;0.00;;;;;;;11.12;95.72;98181.53;5032597;28;20057;-72
2021/11/02 15:49:10;;;;;;;0.10;0.10;;;;;;;11.12;95.52;98183.41;5032320;28;20029;-72
2021/11/02 15:51:38;;;;;;;0.00;0.00;;;;;;;11.16;95.76;98190.53;5032491;28;20037;-73
2021/11/02 15:54:13;;;;;;;0.00;0.00;;;;;;;11.10;96.09;98189.06;5032032;28;20394;-72
2021/11/02 15:56:40;;;;;;;0.00;0.00;;;;;;;11.16;96.28;98211.94;5031899;28;20108;-71
2021/11/02 15:59:07;;;;;;;0.00;0.00;;;;;;;11.14;96.20;98199.97;5031110;28;20441;-73
2021/11/02 16:01:47;;;;;;;0.00;0.00;;;;;;;11.15;95.87;98201.56;5032495;28;20040;-75
2021/11/02 16:04:24;;;;;;;0.00;0.00;;;;;;;11.14;95.79;98194.63;5032089;28;20028;-81
2021/11/02 16:06:52;;;;;;;0.00;0.00;;;;;;;11.15;95.63;98196.19;5031485;28;20052;-74
2021/11/02 16:09:18;;;;;;;0.00;0.00;;;;;;;11.10;95.50;98193.63;5029940;28;20067;-75
2021/11/02 16:11:44;;;;;;;0.00;0.00;;;;;;;11.10;95.94;98193.63;5032042;28;20041;-73
2021/11/02 16:14:09;;;;;;;0.00;0.00;;;;;;;11.07;95.58;98191.53;5031140;28;20133;-73
2021/11/02 16:16:36;;;;;;;0.00;0.00;;;;;;;11.08;95.31;98193.91;5030803;28;20041;-73
2021/11/02 16:19:03;;;;;;;0.00;0.00;;;;;;;11.05;96.06;98202.56;5031714;28;20029;-71
2021/11/02 16:21:32;;;;;;;0.00;0.00;;;;;;;11.03;95.52;98205.53;5030687;28;20054;-72
2021/11/02 16:24:07;;;;;;;0.00;0.00;;;;;;;11.04;95.29;98212.44;5030886;28;20469;-73
2021/11/02 16:26:32;;;;;;;0.35;0.35;;;;;;;10.99;95.55;98209.09;5031385;28;20025;-75
2021/11/02 16:29:18;;;;;;;0.00;0.00;;;;;;;10.97;96.25;98217.41;5029650;28;20025;-77
2021/11/02 16:31:46;;;;;;;0.03;0.03;;;;;;;10.93;95.92;98229.81;5030176;28;20497;-74
2021/11/02 16:34:21;;;;;;;0.15;0.15;;;;;;;10.88;96.07;98220.00;5031462;28;20025;-73
2021/11/02 16:36:47;;;;;;;0.03;0.03;;;;;;;10.78;96.72;98206.84;5046617;28;20528;-73
2021/11/02 16:39:13;;;;;;;0.00;0.00;;;;;;;10.85;96.29;98220.59;5031199;28;20029;-73
2021/11/02 16:41:53;;;;;;;0.00;0.00;;;;;;;10.83;96.92;98225.44;5030291;28;20510;-73
2021/11/02 16:44:30;;;;;;;0.00;0.00;;;;;;;10.85;96.58;98225.16;5030988;28;20025;-73
2021/11/02 16:47:07;;;;;;;0.25;0.25;;;;;;;10.75;96.68;98206.66;5031225;28;20025;-78
2021/11/02 16:49:34;;;;;;;0.10;0.10;;;;;;;10.70;96.93;98212.88;5029788;28;20029;-74
2021/11/02 16:52:07;;;;;;;0.00;0.00;;;;;;;10.79;97.29;98227.16;5029204;28;20040;-75
2021/11/02 16:54:34;;;;;;;0.00;0.00;;;;;;;10.79;97.20;98243.19;5030042;28;20037;-85
2021/11/02 16:57:07;;;;;;;0.00;0.00;;;;;;;10.80;97.25;98243.97;5030439;28;20039;-71
2021/11/02 16:59:42;;;;;;;0.20;0.20;;;;;;;10.83;97.47;98241.50;5023698;28;20030;-75
2021/11/02 17:02:13;;;;;;;0.38;0.38;;;;;;;10.78;97.08;98238.13;5015963;28;20091;-75
2021/11/02 17:04:38;;;;;;;0.00;0.00;;;;;;;10.80;97.34;98243.97;5026725;28;20025;-74